Time;durP1;ratioP1;P1;durP2;ratioP2;P2;SDS_P1;SDS_P2;PMS_P1;PMS_P2;Temp;Humidity;BMP_temperature;BMP_pressure;BME280_temperature;BME280_humidity;BME280_pressure;Samples;Min_cycle;Max_cycle;Signal;HPM_P1;HPM_P2
2023/06/14 00:01:13;;;;;;;5.80;5.10;;;;;;;17.02;66.34;97633.41;4186463;28;20638;-85
2023/06/14 00:03:17;;;;;;;6.23;5.63;;;;;;;17.01;66.78;97629.09;4193434;28;20662;-85
2023/06/14 00:05:23;;;;;;;7.03;6.10;;;;;;;17.01;65.62;97637.00;4190716;28;21371;-85
2023/06/14 00:07:35;;;;;;;7.10;5.90;;;;;;;17.01;66.75;97640.44;4167779;28;20730;-85
2023/06/14 00:09:38;;;;;;;7.87;5.60;;;;;;;16.98;65.90;97639.94;4191750;28;21162;-85
2023/06/14 00:11:42;;;;;;;6.80;5.90;;;;;;;16.98;64.96;97633.88;4198438;28;20745;-85
2023/06/14 00:13:45;;;;;;;7.37;5.67;;;;;;;16.96;65.12;97636.66;4182326;28;20642;-85
2023/06/14 00:15:48;;;;;;;6.23;5.50;;;;;;;16.93;66.35;97636.97;4201339;28;20638;-85
2023/06/14 00:17:51;;;;;;;5.90;5.30;;;;;;;16.90;66.14;97634.63;4184553;28;20658;-85
2023/06/14 00:19:56;;;;;;;5.90;5.27;;;;;;;16.90;65.12;97634.63;4170660;28;20627;-85
2023/06/14 00:22:01;;;;;;;9.00;6.20;;;;;;;16.92;65.92;97629.22;4173644;28;21334;-85
2023/06/14 00:24:05;;;;;;;6.53;5.60;;;;;;;16.92;64.64;97637.13;4182914;28;20626;-84
2023/06/14 00:26:08;;;;;;;6.43;5.23;;;;;;;16.95;65.69;97639.44;4192476;28;20623;-85
2023/06/14 00:28:13;;;;;;;6.83;5.90;;;;;;;16.93;67.03;97636.13;4195295;28;20655;-85
2023/06/14 00:30:16;;;;;;;6.80;6.07;;;;;;;16.90;66.13;97632.00;4198920;28;20629;-85
2023/06/14 00:32:24;;;;;;;6.80;5.47;;;;;;;16.89;67.01;97632.97;4196147;28;20697;-85
2023/06/14 00:34:27;;;;;;;7.07;5.43;;;;;;;16.86;64.97;97633.28;4185957;28;20640;-84
2023/06/14 00:36:30;;;;;;;7.10;5.20;;;;;;;16.86;66.96;97637.72;4198021;28;21215;-85
2023/06/14 00:38:35;;;;;;;5.00;4.50;;;;;;;16.82;65.87;97628.47;4188894;28;20678;-85
2023/06/14 00:40:38;;;;;;;6.43;5.70;;;;;;;16.81;65.06;97632.06;4202684;28;20630;-85
2023/06/14 00:42:42;;;;;;;7.33;6.00;;;;;;;16.83;66.52;97630.94;4184944;28;20680;-85
2023/06/14 00:44:45;;;;;;;5.73;4.83;;;;;;;16.81;64.87;97637.34;4202900;28;20630;-85
2023/06/14 00:46:49;;;;;;;7.60;5.53;;;;;;;16.80;66.69;97630.44;4193959;28;21285;-85
2023/06/14 00:48:53;;;;;;;7.67;6.10;;;;;;;16.76;66.69;97629.91;4199273;28;20633;-85
2023/06/14 00:50:56;;;;;;;6.73;5.73;;;;;;;16.74;65.03;97628.41;4185926;28;20638;-85
2023/06/14 00:53:00;;;;;;;6.87;6.17;;;;;;;16.72;66.66;97627.75;4198548;28;21252;-85
2023/06/14 00:55:06;;;;;;;7.00;5.03;;;;;;;16.68;65.76;97629.03;4196192;28;20637;-85
2023/06/14 00:57:10;;;;;;;7.27;5.33;;;;;;;16.66;67.18;97628.38;4186554;28;20694;-85
2023/06/14 00:59:15;;;;;;;7.80;5.53;;;;;;;16.63;66.43;97637.38;4191013;28;20734;-85
2023/06/14 01:01:18;;;;;;;7.57;5.67;;;;;;;16.59;65.91;97640.47;4201234;28;20650;-85
2023/06/14 01:03:22;;;;;;;5.70;5.20;;;;;;;16.56;66.30;97641.59;4184018;28;20635;-85
2023/06/14 01:05:26;;;;;;;8.33;6.30;;;;;;;16.53;65.54;97634.00;4184479;28;20994;-85
2023/06/14 01:07:37;;;;;;;7.97;6.33;;;;;;;16.53;65.62;97634.00;4202001;28;20678;-84
2023/06/14 01:09:49;;;;;;;7.60;6.00;;;;;;;16.54;67.26;97640.13;4190087;28;20633;-85
2023/06/14 01:11:59;;;;;;;7.50;5.83;;;;;;;16.55;65.82;97642.59;4187093;28;20669;-85
2023/06/14 01:14:03;;;;;;;7.70;5.77;;;;;;;16.53;66.33;97641.09;4195902;28;21023;-85
2023/06/14 01:16:07;;;;;;;7.03;5.47;;;;;;;16.53;66.22;97638.44;4186179;28;20638;-85
2023/06/14 01:18:17;;;;;;;7.00;5.57;;;;;;;16.55;66.57;97642.59;4187746;28;20634;-85
2023/06/14 01:20:24;;;;;;;7.17;5.87;;;;;;;16.54;65.97;97645.38;4189330;28;20641;-85
2023/06/14 01:22:28;;;;;;;6.93;6.23;;;;;;;16.51;66.46;97640.41;4188263;28;21034;-85
2023/06/14 01:24:35;;;;;;;7.00;5.57;;;;;;;16.48;66.63;97645.16;4200136;28;20670;-85
2023/06/14 01:26:45;;;;;;;8.27;6.00;;;;;;;16.45;65.22;97640.19;4201071;28;20638;-85
2023/06/14 01:28:49;;;;;;;7.93;6.20;;;;;;;16.39;66.21;97636.38;4187445;28;20667;-84
2023/06/14 01:30:54;;;;;;;8.17;5.40;;;;;;;16.36;67.28;97643.75;4200446;28;20693;-85
2023/06/14 01:32:59;;;;;;;6.47;5.77;;;;;;;16.31;65.92;97638.94;4183155;28;20673;-85
2023/06/14 01:35:03;;;;;;;6.33;5.67;;;;;;;16.27;68.28;97642.84;4198697;28;20625;-85
2023/06/14 01:37:07;;;;;;;7.00;6.03;;;;;;;16.26;67.38;97637.72;4204873;28;21307;-85
2023/06/14 01:39:11;;;;;;;6.53;5.43;;;;;;;16.21;68.18;97632.06;4193886;28;20671;-85
2023/06/14 01:41:16;;;;;;;6.97;6.00;;;;;;;16.19;66.61;97636.63;4202785;28;20694;-85
2023/06/14 01:43:20;;;;;;;6.70;6.00;;;;;;;16.18;67.85;97632.34;4180009;28;21001;-85
2023/06/14 01:45:24;;;;;;;7.73;6.37;;;;;;;16.16;67.72;97639.56;4179978;28;20672;-85
2023/06/14 01:47:28;;;;;;;7.40;5.90;;;;;;;16.15;67.90;97637.91;4188888;28;20636;-85
2023/06/14 01:49:34;;;;;;;6.43;5.83;;;;;;;16.14;66.68;97637.06;4176263;28;20627;-85
2023/06/14 01:51:37;;;;;;;6.80;6.10;;;;;;;16.13;66.53;97639.84;4170848;28;20643;-85
2023/06/14 01:53:40;;;;;;;6.73;5.63;;;;;;;16.06;68.31;97646.72;4172058;28;20700;-85
2023/06/14 01:55:48;;;;;;;7.43;6.23;;;;;;;15.97;68.36;97638.88;4192285;28;20634;-85
2023/06/14 01:57:53;;;;;;;8.27;6.03;;;;;;;15.92;67.79;97638.47;4192133;28;21226;-85
2023/06/14 01:59:56;;;;;;;5.93;5.23;;;;;;;15.88;68.66;97643.22;4175508;28;21432;-85
2023/06/14 02:02:00;;;;;;;7.57;6.70;;;;;;;15.87;69.31;97638.94;4194055;28;20691;-85
2023/06/14 02:04:04;;;;;;;6.50;5.70;;;;;;;15.84;69.84;97631.34;4180480;28;20627;-85
2023/06/14 02:06:07;;;;;;;7.60;6.03;;;;;;;15.77;70.31;97640.81;4196174;28;20669;-85
2023/06/14 02:08:10;;;;;;;7.20;6.17;;;;;;;15.71;70.38;97633.50;4183025;28;21731;-84
2023/06/14 02:10:15;;;;;;;6.70;5.83;;;;;;;15.67;70.28;97637.38;4186521;28;20645;-85
2023/06/14 02:12:18;;;;;;;7.57;5.90;;;;;;;15.67;69.36;97634.75;4197076;28;20663;-85
2023/06/14 02:14:23;;;;;;;7.90;6.80;;;;;;;15.69;69.53;97632.81;4194551;28;21050;-85
2023/06/14 02:16:28;;;;;;;9.23;6.77;;;;;;;15.68;69.99;97632.94;4195934;28;20658;-85
2023/06/14 02:18:32;;;;;;;7.20;6.30;;;;;;;15.67;69.63;97637.38;4195312;28;20629;-85
2023/06/14 02:20:35;;;;;;;7.00;6.13;;;;;;;15.66;68.69;97635.72;4195795;28;20722;-85
2023/06/14 02:22:38;;;;;;;7.03;6.33;;;;;;;15.64;69.88;97631.59;4184981;28;20642;-85
2023/06/14 02:24:42;;;;;;;9.10;6.13;;;;;;;15.56;69.69;97640.22;4183965;28;20703;-85
2023/06/14 02:26:46;;;;;;;7.20;6.20;;;;;;;15.54;69.68;97635.25;4191813;28;21070;-85
2023/06/14 02:28:51;;;;;;;6.67;6.00;;;;;;;15.48;71.53;97641.09;4193685;28;21021;-85
2023/06/14 02:30:55;;;;;;;6.90;6.20;;;;;;;15.43;70.48;97635.47;4190182;28;20699;-85
2023/06/14 02:32:59;;;;;;;9.00;6.77;;;;;;;15.40;71.26;97630.50;4184495;28;20635;-85
2023/06/14 02:35:02;;;;;;;7.10;6.40;;;;;;;15.34;70.83;97637.16;4205299;28;20660;-85
2023/06/14 02:37:07;;;;;;;7.63;6.07;;;;;;;15.29;70.18;97636.75;4196497;28;20999;-85
2023/06/14 02:39:10;;;;;;;8.47;7.60;;;;;;;15.26;70.62;97638.81;4201283;28;20750;-85
2023/06/14 02:41:14;;;;;;;8.60;6.70;;;;;;;15.22;71.71;97629.59;4186412;28;20633;-85
2023/06/14 02:43:17;;;;;;;7.07;6.10;;;;;;;15.15;71.60;97638.97;4189753;28;20668;-85
2023/06/14 02:45:21;;;;;;;7.60;6.33;;;;;;;15.10;71.88;97630.72;4174748;28;20643;-85
2023/06/14 02:47:25;;;;;;;8.13;6.80;;;;;;;15.09;71.19;97639.56;4175380;28;21424;-85
2023/06/14 02:49:30;;;;;;;7.73;6.23;;;;;;;15.06;72.07;97646.91;4171551;28;20652;-85
2023/06/14 02:51:34;;;;;;;8.13;6.47;;;;;;;15.03;71.91;97640.13;4184831;28;20638;-84
2023/06/14 02:53:37;;;;;;;8.10;6.10;;;;;;;15.03;71.93;97640.13;4190841;28;20644;-85
2023/06/14 02:55:41;;;;;;;7.60;6.20;;;;;;;15.01;72.07;97642.06;4178379;28;20636;-84
2023/06/14 02:57:44;;;;;;;7.97;6.80;;;;;;;14.95;71.85;97633.94;4189487;28;21216;-85
2023/06/14 02:59:48;;;;;;;7.63;6.07;;;;;;;14.91;71.90;97636.00;4171571;28;21025;-84
2023/06/14 03:01:51;;;;;;;7.10;6.40;;;;;;;14.90;71.88;97642.25;4203129;28;20639;-85
2023/06/14 03:03:56;;;;;;;7.77;6.57;;;;;;;14.93;71.75;97638.50;4178109;28;20662;-85
2023/06/14 03:06:04;;;;;;;8.63;7.47;;;;;;;14.89;71.52;97645.84;4183850;28;20777;-85
2023/06/14 03:08:10;;;;;;;7.27;6.37;;;;;;;14.93;71.38;97639.34;4192568;28;20634;-85
2023/06/14 03:10:14;;;;;;;7.07;6.37;;;;;;;14.94;71.57;97642.78;4192817;28;21384;-85
2023/06/14 03:12:20;;;;;;;8.50;6.80;;;;;;;14.93;72.22;97638.50;4194698;28;21279;-85
2023/06/14 03:14:24;;;;;;;7.63;6.40;;;;;;;14.95;71.87;97642.66;4191721;28;20641;-85
2023/06/14 03:16:29;;;;;;;7.90;6.63;;;;;;;14.97;71.75;97650.38;4173628;28;21321;-84
2023/06/14 03:18:35;;;;;;;7.53;6.20;;;;;;;14.96;71.07;97646.09;4185174;28;21272;-85
2023/06/14 03:20:42;;;;;;;8.80;6.40;;;;;;;14.92;71.58;97650.81;4188275;28;20639;-85
2023/06/14 03:22:47;;;;;;;8.47;7.03;;;;;;;14.90;71.71;97642.25;4181897;28;21301;-85
2023/06/14 03:24:51;;;;;;;8.50;7.13;;;;;;;14.91;71.98;97648.31;4175746;28;20625;-85
2023/06/14 03:26:55;;;;;;;7.37;6.23;;;;;;;14.91;71.77;97651.75;4190925;28;20673;-85
2023/06/14 03:28:58;;;;;;;8.67;6.83;;;;;;;14.92;71.95;97650.00;4173966;28;21061;-85
2023/06/14 03:31:01;;;;;;;7.87;7.07;;;;;;;14.88;71.96;97651.22;4191996;28;21119;-85
2023/06/14 03:33:08;;;;;;;8.07;6.70;;;;;;;14.86;71.96;97654.00;4178260;28;20667;-85
2023/06/14 03:35:17;;;;;;;8.43;6.60;;;;;;;14.86;72.21;97654.00;4183263;28;21379;-85
2023/06/14 03:37:24;;;;;;;8.80;6.60;;;;;;;14.83;71.99;97650.84;4175567;28;20793;-85
2023/06/14 03:39:27;;;;;;;7.30;6.40;;;;;;;14.81;72.20;97656.22;4187669;28;23134;-85
2023/06/14 03:41:31;;;;;;;8.53;7.60;;;;;;;14.84;72.27;97657.72;4208625;28;20659;-85
2023/06/14 03:43:35;;;;;;;10.53;6.90;;;;;;;14.87;71.95;97660.91;4182718;28;20635;-85
2023/06/14 03:45:39;;;;;;;8.07;6.83;;;;;;;14.87;71.81;97666.16;4193872;28;21206;-85
2023/06/14 03:47:42;;;;;;;8.20;6.70;;;;;;;14.83;73.04;97661.34;4182360;28;20675;-85
2023/06/14 03:49:46;;;;;;;6.80;6.10;;;;;;;14.80;71.97;97674.75;4186836;28;20639;-85
2023/06/14 03:51:50;;;;;;;7.90;6.37;;;;;;;14.74;72.91;97670.88;4185903;28;20656;-85
2023/06/14 03:53:59;;;;;;;7.37;6.60;;;;;;;14.65;72.49;97681.41;4214003;28;20660;-85
2023/06/14 03:56:08;;;;;;;8.53;7.13;;;;;;;14.62;72.93;97682.50;4181902;28;20686;-85
2023/06/14 03:58:17;;;;;;;7.93;7.13;;;;;;;14.55;72.76;97685.00;4188216;28;20726;-85
2023/06/14 04:00:21;;;;;;;8.83;7.40;;;;;;;14.54;72.76;97691.19;4174112;28;20857;-84
2023/06/14 04:02:25;;;;;;;9.43;7.53;;;;;;;14.54;73.04;97684.16;4192225;28;20635;-85
2023/06/14 04:04:29;;;;;;;7.90;6.97;;;;;;;14.53;73.65;97681.69;4190239;28;21287;-85
2023/06/14 04:06:34;;;;;;;9.60;7.27;;;;;;;14.50;73.40;97687.22;4185062;28;21113;-85
2023/06/14 04:08:41;;;;;;;8.23;7.30;;;;;;;14.52;73.92;97691.34;4174643;28;20683;-85
2023/06/14 04:10:45;;;;;;;9.00;7.40;;;;;;;14.55;74.15;97695.50;4190086;28;20639;-85
2023/06/14 04:12:51;;;;;;;9.50;8.13;;;;;;;14.54;74.12;97702.53;4171801;28;21267;-85
2023/06/14 04:14:55;;;;;;;8.50;7.43;;;;;;;14.59;74.47;97704.75;4169787;28;20727;-85
2023/06/14 04:17:07;;;;;;;9.50;8.27;;;;;;;14.70;74.19;97708.91;4173717;28;20631;-85
2023/06/14 04:19:12;;;;;;;8.20;7.20;;;;;;;14.76;74.53;97712.75;4168387;28;21294;-85
2023/06/14 04:21:15;;;;;;;10.67;6.70;;;;;;;14.83;74.25;97717.28;4188301;28;20692;-84
2023/06/14 04:23:18;;;;;;;7.77;6.33;;;;;;;14.90;74.44;97717.56;4194813;28;21059;-85
2023/06/14 04:25:23;;;;;;;8.33;7.27;;;;;;;14.96;74.10;97712.59;4192379;28;20655;-84
2023/06/14 04:27:31;;;;;;;8.60;7.57;;;;;;;15.04;73.50;97715.34;4181565;28;20713;-85
2023/06/14 04:29:35;;;;;;;9.90;7.27;;;;;;;15.12;73.08;97715.44;4172653;28;20688;-85
2023/06/14 04:31:42;;;;;;;7.80;6.97;;;;;;;15.19;71.89;97722.66;4167720;28;20637;-85
2023/06/14 04:33:47;;;;;;;10.47;7.30;;;;;;;15.24;72.47;97722.22;4174219;28;20732;-85
2023/06/14 04:35:56;;;;;;;8.83;7.83;;;;;;;15.31;73.05;97725.97;4175744;28;20650;-84
2023/06/14 04:37:59;;;;;;;8.33;7.23;;;;;;;15.38;72.03;97722.63;4189748;28;21073;-86
2023/06/14 04:40:06;;;;;;;9.40;7.23;;;;;;;15.43;72.22;97728.28;4187482;28;20723;-81
2023/06/14 04:42:16;;;;;;;7.60;6.80;;;;;;;15.51;72.58;97738.06;4180445;28;20686;-81
2023/06/14 04:44:24;;;;;;;8.00;7.20;;;;;;;15.57;72.25;97733.91;4193685;28;20625;-82
2023/06/14 04:46:30;;;;;;;7.77;6.90;;;;;;;15.60;71.15;97730.97;4183953;28;20623;-82
2023/06/14 04:48:33;;;;;;;7.90;7.10;;;;;;;15.65;71.37;97734.00;4197370;28;20638;-81
2023/06/14 04:50:40;;;;;;;9.30;7.17;;;;;;;15.72;72.52;97747.41;4199571;28;20627;-81
2023/06/14 04:52:44;;;;;;;8.20;6.63;;;;;;;15.78;72.72;97745.00;4205473;28;20629;-82
2023/06/14 04:54:47;;;;;;;9.73;6.97;;;;;;;15.87;72.83;97753.84;4200647;28;20736;-82
2023/06/14 04:56:55;;;;;;;6.80;6.10;;;;;;;15.90;72.43;97753.56;4201548;28;20628;-81
2023/06/14 04:59:01;;;;;;;8.40;7.17;;;;;;;15.98;71.18;97762.34;4170536;28;20735;-82
2023/06/14 05:01:09;;;;;;;9.23;7.90;;;;;;;16.07;71.83;97761.47;4181609;28;20723;-81
2023/06/14 05:03:13;;;;;;;9.20;7.37;;;;;;;16.18;73.66;97769.19;4207167;28;20680;-82
2023/06/14 05:05:17;;;;;;;8.00;7.20;;;;;;;16.25;72.03;97765.88;4205852;28;20629;-82
2023/06/14 05:07:25;;;;;;;7.10;6.40;;;;;;;16.34;73.50;97774.66;4218362;28;20656;-81
2023/06/14 05:09:28;;;;;;;7.67;6.83;;;;;;;16.44;72.39;97770.19;4198052;28;20640;-84
2023/06/14 05:11:31;;;;;;;9.07;7.60;;;;;;;16.52;73.49;97776.34;4192551;28;21001;-83
2023/06/14 05:13:35;;;;;;;8.43;7.50;;;;;;;16.57;72.11;97768.84;4203528;28;20665;-85
2023/06/14 05:15:39;;;;;;;8.60;7.70;;;;;;;16.67;73.01;97765.16;4176581;28;20665;-80
2023/06/14 05:17:52;;;;;;;7.93;7.13;;;;;;;16.78;72.44;97770.22;4200688;28;21013;-82
2023/06/14 05:19:56;;;;;;;9.57;7.83;;;;;;;16.93;73.33;97778.41;4196147;28;20640;-81
2023/06/14 05:22:00;;;;;;;11.73;8.60;;;;;;;16.94;71.72;97774.78;4199886;28;20680;-81
2023/06/14 05:24:03;;;;;;;9.00;7.30;;;;;;;16.97;71.69;97770.03;4198701;28;21110;-80
2023/06/14 05:26:07;;;;;;;25.57;11.47;;;;;;;17.09;81.15;97787.28;4189790;28;20947;-84
2023/06/14 05:28:10;;;;;;;9.57;8.17;;;;;;;17.22;81.67;97791.22;4182762;28;20685;-84
2023/06/14 05:30:15;;;;;;;10.90;8.60;;;;;;;17.33;81.17;97795.41;4181895;28;20681;-85
2023/06/14 05:32:18;;;;;;;8.90;8.00;;;;;;;17.45;80.62;97797.66;4184273;28;20664;-84
2023/06/14 05:34:22;;;;;;;9.37;6.57;;;;;;;17.59;76.42;97797.91;4198878;28;21050;-86
2023/06/14 05:36:27;;;;;;;8.33;7.20;;;;;;;17.80;75.31;97797.53;4198673;28;20657;-84
2023/06/14 05:38:30;;;;;;;7.90;6.83;;;;;;;18.09;75.29;97804.97;4198210;28;20987;-85
2023/06/14 05:40:33;;;;;;;7.80;6.53;;;;;;;18.42;74.23;97815.53;4182595;28;20709;-85
2023/06/14 05:42:36;;;;;;;9.87;8.60;;;;;;;18.79;76.02;97820.44;4202900;28;20693;-84
2023/06/14 05:44:40;;;;;;;7.87;7.07;;;;;;;19.11;76.73;97822.19;4202955;28;20658;-85
2023/06/14 05:46:43;;;;;;;10.40;8.70;;;;;;;19.43;75.01;97823.03;4196214;28;20710;-84
2023/06/14 05:48:46;;;;;;;8.20;7.20;;;;;;;19.75;75.50;97828.28;4199770;28;20639;-84
2023/06/14 05:50:50;;;;;;;10.57;7.13;;;;;;;20.03;73.80;97826.97;4202112;28;20627;-85
2023/06/14 05:52:54;;;;;;;8.87;7.00;;;;;;;20.27;69.58;97829.56;4195896;28;20617;-85
2023/06/14 05:54:57;;;;;;;7.00;6.30;;;;;;;20.53;69.43;97829.09;4199320;28;20635;-85
2023/06/14 05:57:01;;;;;;;7.50;6.70;;;;;;;20.79;68.22;97831.50;4199299;28;20679;-85
2023/06/14 05:59:04;;;;;;;7.63;6.83;;;;;;;21.05;67.24;97830.16;4186094;28;20616;-84
2023/06/14 06:01:07;;;;;;;7.60;6.77;;;;;;;21.28;68.58;97824.69;4191154;28;20722;-85
2023/06/14 06:03:11;;;;;;;7.83;6.33;;;;;;;21.55;64.51;97834.81;4203554;28;20718;-85
2023/06/14 06:05:15;;;;;;;7.77;6.63;;;;;;;21.77;62.52;97831.31;4197779;28;20614;-84
2023/06/14 06:07:20;;;;;;;6.90;6.20;;;;;;;21.97;62.78;97825.28;4200497;28;20663;-85
2023/06/14 06:09:26;;;;;;;7.00;6.30;;;;;;;22.16;63.71;97837.19;4199818;28;20634;-85
2023/06/14 06:11:29;;;;;;;7.13;6.40;;;;;;;22.36;62.69;97844.50;4202031;28;20664;-85
2023/06/14 06:13:46;;;;;;;6.70;6.10;;;;;;;22.56;61.71;97838.41;4215833;28;20638;-85
2023/06/14 06:15:50;;;;;;;8.17;5.97;;;;;;;22.76;60.72;97847.47;4197550;28;20671;-83
2023/06/14 06:17:53;;;;;;;10.20;6.87;;;;;;;22.92;62.83;97844.63;4205346;28;20728;-85
2023/06/14 06:19:58;;;;;;;6.93;5.80;;;;;;;23.18;62.16;97843.09;4195430;28;20623;-85
2023/06/14 06:22:01;;;;;;;7.47;6.67;;;;;;;23.45;59.57;97848.50;4185871;28;20636;-84
2023/06/14 06:24:07;;;;;;;6.30;5.70;;;;;;;23.69;58.70;97846.31;4196116;28;20623;-85
2023/06/14 06:26:10;;;;;;;6.10;5.50;;;;;;;23.88;59.44;97853.63;4202652;28;20630;-85
2023/06/14 06:28:13;;;;;;;6.40;5.80;;;;;;;24.02;54.76;97851.91;4190595;28;20635;-85
2023/06/14 06:30:16;;;;;;;11.33;5.90;;;;;;;23.90;56.14;97848.94;4194646;28;20691;-85
2023/06/14 06:32:20;;;;;;;7.53;6.10;;;;;;;24.00;56.06;97852.09;4203122;28;20692;-86
2023/06/14 06:34:23;;;;;;;6.33;5.73;;;;;;;24.07;53.48;97846.81;4204209;28;20633;-85
2023/06/14 06:36:26;;;;;;;6.13;5.53;;;;;;;24.08;55.48;97856.47;4205321;28;21092;-85
2023/06/14 06:38:29;;;;;;;6.07;5.47;;;;;;;24.15;54.32;97854.69;4199050;28;20746;-85
2023/06/14 06:40:34;;;;;;;6.33;5.70;;;;;;;24.27;54.04;97856.59;4193016;28;20658;-85
2023/06/14 06:42:37;;;;;;;9.60;6.47;;;;;;;24.48;55.77;97860.06;4200560;28;20737;-85
2023/06/14 06:44:41;;;;;;;8.83;6.00;;;;;;;24.70;55.25;97858.94;4181827;28;20738;-84
2023/06/14 06:46:44;;;;;;;6.23;5.63;;;;;;;24.97;56.99;97863.38;4187339;28;20639;-85
2023/06/14 06:48:47;;;;;;;6.70;6.00;;;;;;;25.16;54.31;97866.16;4206779;28;20633;-85
2023/06/14 06:50:51;;;;;;;6.60;6.00;;;;;;;25.26;54.88;97875.44;4204317;28;20691;-85
2023/06/14 06:52:54;;;;;;;6.63;5.90;;;;;;;25.28;53.72;97862.69;4200403;28;20627;-85
2023/06/14 06:54:57;;;;;;;6.93;6.33;;;;;;;25.35;53.38;97871.56;4202227;28;20692;-85
2023/06/14 06:57:02;;;;;;;6.90;6.30;;;;;;;25.42;55.03;97876.91;4199814;28;20662;-85
2023/06/14 06:59:05;;;;;;;6.60;5.90;;;;;;;25.33;52.98;97873.63;4201581;28;21252;-85
2023/06/14 07:01:09;;;;;;;6.87;6.17;;;;;;;25.41;53.45;97867.22;4200191;28;20667;-84
2023/06/14 07:03:12;;;;;;;6.93;6.33;;;;;;;25.51;53.32;97871.16;4200668;28;21383;-85
2023/06/14 07:05:15;;;;;;;6.80;6.10;;;;;;;25.61;52.73;97879.63;4186507;28;20626;-85
2023/06/14 07:07:19;;;;;;;6.43;5.83;;;;;;;25.74;55.32;97882.31;4213803;28;21041;-85
2023/06/14 07:09:24;;;;;;;9.30;6.80;;;;;;;25.76;52.07;97881.09;4201949;28;20737;-85
2023/06/14 07:11:27;;;;;;;6.73;6.03;;;;;;;25.71;51.94;97883.56;4196187;28;20663;-85
2023/06/14 07:13:31;;;;;;;6.30;5.70;;;;;;;25.78;52.02;97872.88;4190223;28;20635;-85
2023/06/14 07:15:35;;;;;;;6.70;5.47;;;;;;;25.92;51.80;97871.84;4199660;28;20631;-84
2023/06/14 07:17:38;;;;;;;5.97;5.30;;;;;;;25.99;51.52;97878.84;4199552;28;20655;-85
2023/06/14 07:19:41;;;;;;;6.97;6.20;;;;;;;26.02;51.58;97877.63;4198317;28;20624;-85
2023/06/14 07:21:46;;;;;;;6.73;6.07;;;;;;;26.05;51.21;97877.22;4185609;28;21004;-85
2023/06/14 07:23:49;;;;;;;6.27;4.90;;;;;;;26.28;52.65;97876.63;4187307;28;20621;-85
2023/06/14 07:25:52;;;;;;;6.20;5.60;;;;;;;26.23;51.63;97884.41;4195347;28;21265;-85
2023/06/14 07:27:55;;;;;;;5.87;5.27;;;;;;;26.44;51.83;97886.88;4191480;28;21261;-87
2023/06/14 07:30:00;;;;;;;5.90;5.30;;;;;;;26.53;50.45;97880.28;4181006;28;20648;-87
2023/06/14 07:32:04;;;;;;;6.50;5.90;;;;;;;26.59;51.13;97890.16;4185356;28;20633;-83
2023/06/14 07:34:07;;;;;;;6.60;5.90;;;;;;;26.61;51.05;97883.56;4191878;28;21235;-86
2023/06/14 07:36:10;;;;;;;6.50;5.13;;;;;;;26.72;50.88;97888.28;4194287;28;20658;-82
2023/06/14 07:38:14;;;;;;;6.33;5.37;;;;;;;26.94;52.15;97896.88;4199249;28;20680;-84
2023/06/14 07:40:17;;;;;;;5.53;5.03;;;;;;;27.17;52.03;97904.22;4182471;28;20658;-84
2023/06/14 07:42:20;;;;;;;6.57;5.57;;;;;;;27.34;51.21;97894.66;4180755;28;20634;-85
2023/06/14 07:44:23;;;;;;;5.83;5.33;;;;;;;27.50;49.57;97899.56;4196362;28;21028;-85
2023/06/14 07:46:28;;;;;;;6.83;5.93;;;;;;;27.27;49.26;97899.25;4195114;28;20632;-85
2023/06/14 07:48:31;;;;;;;5.67;5.17;;;;;;;27.20;52.33;97898.44;4196858;28;21030;-85
2023/06/14 07:50:35;;;;;;;6.47;5.63;;;;;;;27.40;51.38;97895.69;4197805;28;21034;-84
2023/06/14 07:52:38;;;;;;;7.10;6.40;;;;;;;27.43;49.12;97893.38;4197995;28;21079;-85
2023/06/14 07:54:41;;;;;;;5.93;5.33;;;;;;;27.31;49.86;97889.72;4197452;28;20638;-85
2023/06/14 07:56:44;;;;;;;6.00;5.40;;;;;;;27.42;50.44;97897.09;4180447;28;21188;-85
2023/06/14 07:58:48;;;;;;;5.93;5.33;;;;;;;27.54;49.92;97901.59;4193066;28;20637;-84
2023/06/14 08:00:51;;;;;;;6.03;5.43;;;;;;;27.67;52.58;97904.19;4180046;28;20632;-85
2023/06/14 08:02:58;;;;;;;6.93;6.10;;;;;;;27.78;49.87;97892.78;4196737;28;20631;-85
2023/06/14 08:05:04;;;;;;;6.40;5.80;;;;;;;27.57;49.25;97894.97;4193689;28;20607;-85
2023/06/14 08:07:07;;;;;;;6.20;5.50;;;;;;;27.71;49.59;97896.53;4182242;28;20667;-85
2023/06/14 08:09:10;;;;;;;6.20;5.60;;;;;;;27.85;51.20;97898.13;4196540;28;20704;-85
2023/06/14 08:11:13;;;;;;;6.57;4.90;;;;;;;27.92;49.33;97901.56;4196331;28;20634;-85
2023/06/14 08:13:17;;;;;;;7.23;5.30;;;;;;;27.92;48.69;97898.88;4201199;28;20635;-85
2023/06/14 08:15:20;;;;;;;5.90;5.30;;;;;;;27.26;48.70;97886.88;4198901;28;20627;-85
2023/06/14 08:17:23;;;;;;;8.10;5.60;;;;;;;27.23;49.23;97891.84;4202964;28;21221;-85
2023/06/14 08:19:28;;;;;;;5.70;5.20;;;;;;;27.34;48.93;97886.63;4189103;28;20668;-85
2023/06/14 08:21:33;;;;;;;5.43;4.93;;;;;;;27.39;48.91;97889.47;4190848;28;20637;-85
2023/06/14 08:23:36;;;;;;;5.33;4.83;;;;;;;27.55;49.14;97892.50;4194249;28;21221;-85
2023/06/14 08:25:40;;;;;;;6.67;5.07;;;;;;;27.78;48.33;97900.00;4196395;28;21008;-85
2023/06/14 08:27:43;;;;;;;5.03;4.40;;;;;;;27.62;48.72;97892.50;4197823;28;20620;-85
2023/06/14 08:29:46;;;;;;;5.37;4.87;;;;;;;27.54;47.84;97890.03;4189065;28;20646;-85
2023/06/14 08:31:49;;;;;;;5.50;5.00;;;;;;;27.55;48.13;97889.81;4197269;28;21014;-85
2023/06/14 08:33:53;;;;;;;6.13;5.53;;;;;;;27.55;48.57;97883.66;4200490;28;20639;-86
2023/06/14 08:35:57;;;;;;;5.73;5.17;;;;;;;27.81;49.59;97891.53;4198824;28;20650;-85
2023/06/14 08:38:00;;;;;;;6.23;5.43;;;;;;;27.83;48.06;97884.06;4200247;28;20744;-85
2023/06/14 08:40:06;;;;;;;4.80;4.40;;;;;;;27.75;47.75;97895.88;4190629;28;20726;-85
2023/06/14 08:42:10;;;;;;;5.67;5.07;;;;;;;27.88;48.36;97887.75;4199733;28;20641;-85
2023/06/14 08:44:25;;;;;;;6.10;5.33;;;;;;;27.92;48.96;97888.13;4201015;28;21204;-85
2023/06/14 08:46:30;;;;;;;5.00;4.50;;;;;;;27.76;46.89;97896.72;4204254;28;20700;-85
2023/06/14 08:48:34;;;;;;;6.17;5.57;;;;;;;27.51;47.75;97890.47;4199754;28;20718;-85
2023/06/14 08:50:38;;;;;;;6.47;5.30;;;;;;;27.32;47.59;97896.75;4181338;28;20632;-85
2023/06/14 08:52:49;;;;;;;6.43;5.70;;;;;;;27.21;46.98;97891.22;4196058;28;20639;-85
2023/06/14 08:54:52;;;;;;;5.70;5.00;;;;;;;27.11;49.08;97888.19;4201864;28;20640;-85
2023/06/14 08:56:57;;;;;;;5.87;5.27;;;;;;;27.25;48.66;97893.25;4197736;28;20634;-85
2023/06/14 08:59:02;;;;;;;5.83;5.07;;;;;;;27.35;47.41;97895.47;4198356;28;21205;-85
2023/06/14 09:01:07;;;;;;;6.10;5.50;;;;;;;27.13;48.16;97886.09;4201260;28;20626;-85
2023/06/14 09:03:13;;;;;;;5.87;5.30;;;;;;;26.83;47.68;97882.25;4196751;28;20639;-85
2023/06/14 09:05:18;;;;;;;6.20;5.63;;;;;;;26.44;47.28;97873.50;4203085;28;20617;-85
2023/06/14 09:07:21;;;;;;;5.27;4.77;;;;;;;26.00;48.97;97879.69;4198169;28;20660;-85
2023/06/14 09:09:25;;;;;;;5.50;5.00;;;;;;;26.07;49.13;97880.50;4198478;28;21301;-85
2023/06/14 09:11:29;;;;;;;5.90;5.30;;;;;;;26.10;48.92;97883.63;4198725;28;20720;-85
2023/06/14 09:13:32;;;;;;;6.50;5.53;;;;;;;26.28;48.61;97873.13;4198697;28;21468;-85
2023/06/14 09:15:36;;;;;;;5.40;4.90;;;;;;;26.51;47.70;97885.03;4199031;28;20634;-85
2023/06/14 09:17:40;;;;;;;5.43;4.93;;;;;;;26.73;48.03;97878.38;4207246;28;20640;-85
2023/06/14 09:19:43;;;;;;;5.60;5.00;;;;;;;26.93;49.61;97882.69;4201097;28;20627;-84
2023/06/14 09:21:48;;;;;;;5.17;4.67;;;;;;;26.94;47.56;97889.66;4199733;28;20641;-85
2023/06/14 09:23:52;;;;;;;6.33;5.07;;;;;;;26.98;48.11;97882.88;4194873;28;20627;-87
2023/06/14 09:25:56;;;;;;;5.50;5.00;;;;;;;26.58;45.97;97877.78;4195741;28;20636;-85
2023/06/14 09:27:59;;;;;;;5.90;4.80;;;;;;;26.59;48.71;97882.94;4199769;28;20622;-85
2023/06/14 09:30:04;;;;;;;5.10;4.60;;;;;;;26.72;48.43;97890.13;4200087;28;20653;-85
2023/06/14 09:32:09;;;;;;;5.43;4.83;;;;;;;26.62;46.48;97882.53;4190800;28;20653;-85
2023/06/14 09:34:12;;;;;;;5.30;4.80;;;;;;;26.34;46.99;97874.97;4207457;28;20995;-85
2023/06/14 09:36:17;;;;;;;6.17;5.57;;;;;;;26.00;47.08;97875.16;4199985;28;20627;-85
2023/06/14 09:38:20;;;;;;;5.23;4.73;;;;;;;26.04;48.36;97878.25;4201948;28;21231;-85
2023/06/14 09:40:23;;;;;;;5.17;4.67;;;;;;;26.10;48.18;97875.59;4198494;28;20631;-85
2023/06/14 09:42:29;;;;;;;5.70;5.03;;;;;;;26.34;46.77;97883.84;4188655;28;20650;-85
2023/06/14 09:44:32;;;;;;;7.90;5.23;;;;;;;26.54;47.20;97892.66;4192099;28;20728;-85
2023/06/14 09:46:36;;;;;;;5.80;4.80;;;;;;;26.58;48.22;97892.03;4199349;28;20633;-85